sensor_id;sensor_type;location;lat;lon;timestamp;pressure;altitude;pressure_sealevel;temperature;humidity
78667;BME280;67983;59.830;30.198;2023-08-12T00:02:15;101854.66;;;19.79;58.19
78667;BME280;67983;59.830;30.198;2023-08-12T00:04:42;101852.34;;;19.75;58.26
78667;BME280;67983;59.830;30.198;2023-08-12T00:07:09;101852.75;;;19.70;58.35
78667;BME280;67983;59.830;30.198;2023-08-12T00:09:36;101854.88;;;19.66;58.71
78667;BME280;67983;59.830;30.198;2023-08-12T00:12:06;101860.53;;;19.63;58.76
78667;BME280;67983;59.830;30.198;2023-08-12T00:14:33;101851.72;;;19.61;58.63
78667;BME280;67983;59.830;30.198;2023-08-12T00:17:00;101851.97;;;19.58;58.76
78667;BME280;67983;59.830;30.198;2023-08-12T00:19:28;101855.78;;;19.56;59.21
78667;BME280;67983;59.830;30.198;2023-08-12T00:21:56;101847.84;;;19.54;59.10
78667;BME280;67983;59.830;30.198;2023-08-12T00:24:23;101837.16;;;19.53;59.23
78667;BME280;67983;59.830;30.198;2023-08-12T00:26:50;101847.94;;;19.53;59.14
78667;BME280;67983;59.830;30.198;2023-08-12T00:29:19;101846.94;;;19.54;59.21
78667;BME280;67983;59.830;30.198;2023-08-12T00:31:46;101843.41;;;19.53;58.99
78667;BME280;67983;59.830;30.198;2023-08-12T00:34:40;101841.56;;;19.54;59.12
78667;BME280;67983;59.830;30.198;2023-08-12T00:37:08;101836.19;;;19.54;58.95
78667;BME280;67983;59.830;30.198;2023-08-12T00:39:35;101829.94;;;19.53;59.00
78667;BME280;67983;59.830;30.198;2023-08-12T00:42:02;101839.16;;;19.51;59.06
78667;BME280;67983;59.830;30.198;2023-08-12T00:44:33;101843.81;;;19.49;58.93
78667;BME280;67983;59.830;30.198;2023-08-12T00:47:04;101849.19;;;19.49;58.93
78667;BME280;67983;59.830;30.198;2023-08-12T00:49:33;101843.81;;;19.49;59.03
78667;BME280;67983;59.830;30.198;2023-08-12T00:52:00;101836.00;;;19.46;59.07
78667;BME280;67983;59.830;30.198;2023-08-12T00:54:28;101843.22;;;19.45;58.97
78667;BME280;67983;59.830;30.198;2023-08-12T00:56:55;101837.94;;;19.44;58.87
78667;BME280;67983;59.830;30.198;2023-08-12T00:59:23;101836.66;;;19.38;58.55
78667;BME280;67983;59.830;30.198;2023-08-12T01:01:53;101836.06;;;19.34;58.57
78667;BME280;67983;59.830;30.198;2023-08-12T01:04:22;101839.75;;;19.33;58.42
78667;BME280;67983;59.830;30.198;2023-08-12T01:06:53;101840.00;;;19.30;58.67
78667;BME280;67983;59.830;30.198;2023-08-12T01:09:20;101836.69;;;19.27;58.63
78667;BME280;67983;59.830;30.198;2023-08-12T01:11:50;101839.53;;;19.25;58.77
78667;BME280;67983;59.830;30.198;2023-08-12T01:14:23;101846.16;;;19.21;58.77
78667;BME280;67983;59.830;30.198;2023-08-12T01:16:59;101842.75;;;19.19;58.62
78667;BME280;67983;59.830;30.198;2023-08-12T01:19:32;101841.16;;;19.17;58.62
78667;BME280;67983;59.830;30.198;2023-08-12T01:22:01;101845.09;;;19.13;58.88
78667;BME280;67983;59.830;30.198;2023-08-12T01:24:35;101845.59;;;19.06;58.81
78667;BME280;67983;59.830;30.198;2023-08-12T01:27:06;101830.09;;;18.99;59.05
78667;BME280;67983;59.830;30.198;2023-08-12T01:29:34;101829.13;;;19.00;58.97
78667;BME280;67983;59.830;30.198;2023-08-12T01:32:09;101828.53;;;18.96;59.15
78667;BME280;67983;59.830;30.198;2023-08-12T01:34:46;101821.84;;;18.91;59.00
78667;BME280;67983;59.830;30.198;2023-08-12T01:37:21;101821.38;;;18.86;59.16
78667;BME280;67983;59.830;30.198;2023-08-12T01:39:52;101815.63;;;18.79;59.22
78667;BME280;67983;59.830;30.198;2023-08-12T01:42:21;101813.47;;;18.73;59.37
78667;BME280;67983;59.830;30.198;2023-08-12T01:44:49;101823.72;;;18.68;59.62
78667;BME280;67983;59.830;30.198;2023-08-12T01:47:19;101821.53;;;18.62;59.48
78667;BME280;67983;59.830;30.198;2023-08-12T01:49:48;101821.78;;;18.59;59.50
78667;BME280;67983;59.830;30.198;2023-08-12T01:52:15;101823.88;;;18.55;59.79
78667;BME280;67983;59.830;30.198;2023-08-12T01:54:42;101817.16;;;18.49;60.01
78667;BME280;67983;59.830;30.198;2023-08-12T01:57:10;101814.72;;;18.46;59.97
78667;BME280;67983;59.830;30.198;2023-08-12T01:59:39;101816.22;;;18.39;60.00
78667;BME280;67983;59.830;30.198;2023-08-12T02:02:07;101816.09;;;18.41;60.33
78667;BME280;67983;59.830;30.198;2023-08-12T02:04:39;101819.88;;;18.38;60.55
78667;BME280;67983;59.830;30.198;2023-08-12T02:07:06;101823.53;;;18.37;60.45
78667;BME280;67983;59.830;30.198;2023-08-12T02:09:33;101819.38;;;18.33;60.79
78667;BME280;67983;59.830;30.198;2023-08-12T02:12:01;101819.38;;;18.33;61.05
78667;BME280;67983;59.830;30.198;2023-08-12T02:14:31;101823.31;;;18.29;61.13
78667;BME280;67983;59.830;30.198;2023-08-12T02:16:59;101826.25;;;18.26;61.42
78667;BME280;67983;59.830;30.198;2023-08-12T02:19:26;101822.84;;;18.24;61.42
78667;BME280;67983;59.830;30.198;2023-08-12T02:21:53;101818.53;;;18.21;61.54
78667;BME280;67983;59.830;30.198;2023-08-12T02:24:20;101813.28;;;18.20;61.65
78667;BME280;67983;59.830;30.198;2023-08-12T02:26:47;101814.25;;;18.19;61.46
78667;BME280;67983;59.830;30.198;2023-08-12T02:29:15;101818.66;;;18.20;61.76
78667;BME280;67983;59.830;30.198;2023-08-12T02:31:44;101819.63;;;18.19;61.70
78667;BME280;67983;59.830;30.198;2023-08-12T02:34:11;101822.31;;;18.19;61.97
78667;BME280;67983;59.830;30.198;2023-08-12T02:36:38;101824.28;;;18.17;61.92
78667;BME280;67983;59.830;30.198;2023-08-12T02:39:05;101813.66;;;18.15;61.87
78667;BME280;67983;59.830;30.198;2023-08-12T02:41:32;101823.56;;;18.15;62.00
78667;BME280;67983;59.830;30.198;2023-08-12T02:44:00;101818.31;;;18.13;61.93
78667;BME280;67983;59.830;30.198;2023-08-12T02:46:27;101823.81;;;18.12;61.94
78667;BME280;67983;59.830;30.198;2023-08-12T02:48:58;101821.13;;;18.12;62.10
78667;BME280;67983;59.830;30.198;2023-08-12T02:51:25;101822.09;;;18.11;61.93
78667;BME280;67983;59.830;30.198;2023-08-12T02:53:52;101826.50;;;18.12;62.16
78667;BME280;67983;59.830;30.198;2023-08-12T02:56:19;101833.72;;;18.11;62.21
78667;BME280;67983;59.830;30.198;2023-08-12T02:58:46;101830.03;;;18.12;62.45
78667;BME280;67983;59.830;30.198;2023-08-12T03:01:14;101841.63;;;18.13;62.49
78667;BME280;67983;59.830;30.198;2023-08-12T03:03:41;101831.16;;;18.10;62.32
78667;BME280;67983;59.830;30.198;2023-08-12T03:06:10;101830.03;;;18.12;62.36
78667;BME280;67983;59.830;30.198;2023-08-12T03:08:38;101829.91;;;18.14;62.50
78667;BME280;67983;59.830;30.198;2023-08-12T03:11:06;101822.72;;;18.14;62.28
78667;BME280;67983;59.830;30.198;2023-08-12T03:13:35;101831.63;;;18.15;62.41
78667;BME280;67983;59.830;30.198;2023-08-12T03:16:03;101828.94;;;18.15;62.57
78667;BME280;67983;59.830;30.198;2023-08-12T03:18:32;101830.75;;;18.14;62.60
78667;BME280;67983;59.830;30.198;2023-08-12T03:21:00;101828.22;;;18.13;62.89
78667;BME280;67983;59.830;30.198;2023-08-12T03:23:34;101825.53;;;18.13;62.92
78667;BME280;67983;59.830;30.198;2023-08-12T03:26:05;101821.13;;;18.12;62.75
78667;BME280;67983;59.830;30.198;2023-08-12T03:28:32;101830.03;;;18.12;62.86
78667;BME280;67983;59.830;30.198;2023-08-12T03:30:59;101828.22;;;18.13;62.86
78667;BME280;67983;59.830;30.198;2023-08-12T03:33:26;101828.22;;;18.13;62.44
78667;BME280;67983;59.830;30.198;2023-08-12T03:35:55;101828.06;;;18.14;62.66
78667;BME280;67983;59.830;30.198;2023-08-12T03:38:23;101823.69;;;18.13;62.68
78667;BME280;67983;59.830;30.198;2023-08-12T03:40:53;101818.19;;;18.15;62.63
78667;BME280;67983;59.830;30.198;2023-08-12T03:43:20;101827.94;;;18.16;62.59
78667;BME280;67983;59.830;30.198;2023-08-12T03:45:49;101828.56;;;18.19;62.69
78667;BME280;67983;59.830;30.198;2023-08-12T03:48:19;101834.31;;;18.26;62.51
78667;BME280;67983;59.830;30.198;2023-08-12T03:50:46;101828.28;;;18.34;62.32
78667;BME280;67983;59.830;30.198;2023-08-12T03:53:15;101832.94;;;18.43;62.32
78667;BME280;67983;59.830;30.198;2023-08-12T03:55:44;101834.84;;;18.52;62.24
78667;BME280;67983;59.830;30.198;2023-08-12T03:58:16;101828.13;;;18.58;61.82
78667;BME280;67983;59.830;30.198;2023-08-12T04:00:44;101834.59;;;18.66;62.10
78667;BME280;67983;59.830;30.198;2023-08-12T04:03:14;101835.84;;;18.73;62.03
78667;BME280;67983;59.830;30.198;2023-08-12T04:05:47;101835.56;;;18.76;62.18
78667;BME280;67983;59.830;30.198;2023-08-12T04:08:16;101832.50;;;18.81;61.86
78667;BME280;67983;59.830;30.198;2023-08-12T04:10:45;101831.50;;;18.82;61.49
78667;BME280;67983;59.830;30.198;2023-08-12T04:13:15;101823.22;;;18.85;61.16
78667;BME280;67983;59.830;30.198;2023-08-12T04:15:48;101825.63;;;18.88;60.75
78667;BME280;67983;59.830;30.198;2023-08-12T04:18:16;101827.34;;;18.89;60.92
78667;BME280;67983;59.830;30.198;2023-08-12T04:20:45;101826.22;;;18.92;61.02
78667;BME280;67983;59.830;30.198;2023-08-12T04:23:13;101825.09;;;18.94;61.06
78667;BME280;67983;59.830;30.198;2023-08-12T04:25:43;101825.84;;;18.96;61.09
78667;BME280;67983;59.830;30.198;2023-08-12T04:28:12;101831.94;;;18.98;61.02
78667;BME280;67983;59.830;30.198;2023-08-12T04:30:45;101826.31;;;19.01;61.20
78667;BME280;67983;59.830;30.198;2023-08-12T04:33:14;101816.00;;;19.06;60.96
78667;BME280;67983;59.830;30.198;2023-08-12T04:35:42;101820.72;;;19.14;60.62
78667;BME280;67983;59.830;30.198;2023-08-12T04:38:10;101816.41;;;19.23;60.58
78667;BME280;67983;59.830;30.198;2023-08-12T04:40:39;101816.50;;;19.32;60.12
78667;BME280;67983;59.830;30.198;2023-08-12T04:43:07;101810.19;;;19.43;59.66
78667;BME280;67983;59.830;30.198;2023-08-12T04:45:34;101811.09;;;19.53;59.50
78667;BME280;67983;59.830;30.198;2023-08-12T04:48:05;101808.75;;;19.60;58.99
78667;BME280;67983;59.830;30.198;2023-08-12T04:50:34;101801.28;;;19.63;58.77
78667;BME280;67983;59.830;30.198;2023-08-12T04:53:01;101805.41;;;19.67;58.42
78667;BME280;67983;59.830;30.198;2023-08-12T04:55:28;101802.56;;;19.69;58.44
78667;BME280;67983;59.830;30.198;2023-08-12T04:57:57;101803.44;;;19.69;58.20
78667;BME280;67983;59.830;30.198;2023-08-12T05:00:25;101792.66;;;19.69;58.07
78667;BME280;67983;59.830;30.198;2023-08-12T05:02:54;101797.75;;;19.73;58.06
78667;BME280;67983;59.830;30.198;2023-08-12T05:05:23;101794.69;;;19.77;58.29
78667;BME280;67983;59.830;30.198;2023-08-12T05:07:51;101800.38;;;19.84;58.09
78667;BME280;67983;59.830;30.198;2023-08-12T05:10:19;101805.09;;;19.91;58.01
78667;BME280;67983;59.830;30.198;2023-08-12T05:12:46;101807.97;;;19.99;58.15
78667;BME280;67983;59.830;30.198;2023-08-12T05:15:15;101809.25;;;20.05;57.81
78667;BME280;67983;59.830;30.198;2023-08-12T05:17:42;101807.00;;;20.10;57.79
78667;BME280;67983;59.830;30.198;2023-08-12T05:20:11;101801.91;;;20.17;57.76
78667;BME280;67983;59.830;30.198;2023-08-12T05:22:39;101805.06;;;20.22;57.82
78667;BME280;67983;59.830;30.198;2023-08-12T05:25:07;101807.06;;;20.29;57.70
78667;BME280;67983;59.830;30.198;2023-08-12T05:27:35;101811.19;;;20.34;57.46
78667;BME280;67983;59.830;30.198;2023-08-12T05:30:02;101807.72;;;20.43;57.33
78667;BME280;67983;59.830;30.198;2023-08-12T05:32:29;101807.59;;;20.54;57.30
78667;BME280;67983;59.830;30.198;2023-08-12T05:34:58;101802.19;;;20.64;57.19
78667;BME280;67983;59.830;30.198;2023-08-12T05:37:25;101799.38;;;20.75;57.01
78667;BME280;67983;59.830;30.198;2023-08-12T05:39:53;101802.78;;;20.86;56.87
78667;BME280;67983;59.830;30.198;2023-08-12T05:42:21;101809.03;;;20.97;56.44
78667;BME280;67983;59.830;30.198;2023-08-12T05:44:49;101802.78;;;21.06;56.42
78667;BME280;67983;59.830;30.198;2023-08-12T05:47:15;101808.59;;;21.11;56.24
78667;BME280;67983;59.830;30.198;2023-08-12T05:49:43;101814.59;;;21.14;56.16
78667;BME280;67983;59.830;30.198;2023-08-12T05:52:10;101810.03;;;21.15;56.26
78667;BME280;67983;59.830;30.198;2023-08-12T05:54:37;101805.19;;;21.18;56.49
78667;BME280;67983;59.830;30.198;2023-08-12T05:57:07;101798.25;;;21.26;56.34
78667;BME280;67983;59.830;30.198;2023-08-12T05:59:36;101796.38;;;21.36;56.34
78667;BME280;67983;59.830;30.198;2023-08-12T06:02:03;101795.38;;;21.46;56.11
78667;BME280;67983;59.830;30.198;2023-08-12T06:04:31;101794.34;;;21.57;56.06
78667;BME280;67983;59.830;30.198;2023-08-12T06:06:58;101796.31;;;21.65;55.96
78667;BME280;67983;59.830;30.198;2023-08-12T06:09:25;101802.56;;;21.75;55.95
78667;BME280;67983;59.830;30.198;2023-08-12T06:11:54;101804.50;;;21.83;55.85
78667;BME280;67983;59.830;30.198;2023-08-12T06:14:23;101804.63;;;21.91;55.69
78667;BME280;67983;59.830;30.198;2023-08-12T06:16:50;101808.41;;;21.98;55.53
78667;BME280;67983;59.830;30.198;2023-08-12T06:19:17;101801.44;;;22.05;55.40
78667;BME280;67983;59.830;30.198;2023-08-12T06:21:44;101802.41;;;22.14;55.09
78667;BME280;67983;59.830;30.198;2023-08-12T06:24:12;101805.75;;;22.25;55.09
78667;BME280;67983;59.830;30.198;2023-08-12T06:26:42;101810.41;;;22.33;54.62
78667;BME280;67983;59.830;30.198;2023-08-12T06:29:09;101813.69;;;22.36;54.48
78667;BME280;67983;59.830;30.198;2023-08-12T06:31:38;101816.31;;;22.46;54.59
78667;BME280;67983;59.830;30.198;2023-08-12T06:34:05;101809.16;;;22.55;54.30
78667;BME280;67983;59.830;30.198;2023-08-12T06:36:32;101804.66;;;22.63;54.06
78667;BME280;67983;59.830;30.198;2023-08-12T06:39:01;101805.75;;;22.71;53.71
78667;BME280;67983;59.830;30.198;2023-08-12T06:41:29;101805.81;;;22.79;53.49
78667;BME280;67983;59.830;30.198;2023-08-12T06:43:56;101807.97;;;22.85;53.27
78667;BME280;67983;59.830;30.198;2023-08-12T06:46:23;101807.47;;;22.89;52.69
78667;BME280;67983;59.830;30.198;2023-08-12T06:48:51;101810.50;;;23.04;52.51
78667;BME280;67983;59.830;30.198;2023-08-12T06:51:20;101815.84;;;23.14;52.28
78667;BME280;67983;59.830;30.198;2023-08-12T06:53:49;101812.66;;;23.18;51.94
78667;BME280;67983;59.830;30.198;2023-08-12T06:56:16;101817.59;;;23.23;51.83
78667;BME280;67983;59.830;30.198;2023-08-12T06:58:44;101812.69;;;23.26;51.66
78667;BME280;67983;59.830;30.198;2023-08-12T07:01:11;101817.19;;;23.36;51.39
78667;BME280;67983;59.830;30.198;2023-08-12T07:03:38;101818.63;;;23.48;50.98
78667;BME280;67983;59.830;30.198;2023-08-12T07:06:06;101820.53;;;23.55;50.92
78667;BME280;67983;59.830;30.198;2023-08-12T07:08:34;101813.00;;;23.59;50.21
78667;BME280;67983;59.830;30.198;2023-08-12T07:11:01;101816.91;;;23.65;49.89
78667;BME280;67983;59.830;30.198;2023-08-12T07:13:30;101820.50;;;23.73;49.42
78667;BME280;67983;59.830;30.198;2023-08-12T07:15:59;101823.78;;;23.85;48.85
78667;BME280;67983;59.830;30.198;2023-08-12T07:18:27;101825.72;;;23.93;48.40
78667;BME280;67983;59.830;30.198;2023-08-12T07:20:55;101828.28;;;24.02;48.08
78667;BME280;67983;59.830;30.198;2023-08-12T07:23:27;101821.75;;;24.13;47.73
78667;BME280;67983;59.830;30.198;2023-08-12T07:25:54;101832.63;;;24.21;47.06
78667;BME280;67983;59.830;30.198;2023-08-12T07:28:23;101831.63;;;24.22;46.94
78667;BME280;67983;59.830;30.198;2023-08-12T07:30:50;101828.91;;;24.22;46.65
78667;BME280;67983;59.830;30.198;2023-08-12T07:33:21;101832.69;;;24.29;46.26
78667;BME280;67983;59.830;30.198;2023-08-12T07:35:48;101829.16;;;24.37;46.18
78667;BME280;67983;59.830;30.198;2023-08-12T07:38:16;101830.88;;;24.46;45.93
78667;BME280;67983;59.830;30.198;2023-08-12T07:40:45;101826.16;;;24.56;45.72
78667;BME280;67983;59.830;30.198;2023-08-12T07:43:12;101823.63;;;24.63;45.46
78667;BME280;67983;59.830;30.198;2023-08-12T07:45:39;101836.72;;;24.67;45.40
78667;BME280;67983;59.830;30.198;2023-08-12T07:48:06;101836.53;;;24.69;44.84
78667;BME280;67983;59.830;30.198;2023-08-12T07:50:35;101829.06;;;24.63;44.74
78667;BME280;67983;59.830;30.198;2023-08-12T07:53:03;101830.75;;;24.64;45.25
78667;BME280;67983;59.830;30.198;2023-08-12T07:55:30;101829.75;;;24.73;45.14
78667;BME280;67983;59.830;30.198;2023-08-12T07:57:58;101827.75;;;24.83;44.87
78667;BME280;67983;59.830;30.198;2023-08-12T08:00:25;101833.53;;;24.88;44.78
78667;BME280;67983;59.830;30.198;2023-08-12T08:02:52;101836.56;;;24.93;44.67
78667;BME280;67983;59.830;30.198;2023-08-12T08:05:20;101832.53;;;24.97;44.26
78667;BME280;67983;59.830;30.198;2023-08-12T08:07:48;101838.31;;;25.02;44.25
78667;BME280;67983;59.830;30.198;2023-08-12T08:10:15;101833.56;;;25.05;43.74
78667;BME280;67983;59.830;30.198;2023-08-12T08:12:42;101832.72;;;25.04;43.83
78667;BME280;67983;59.830;30.198;2023-08-12T08:15:10;101830.88;;;25.13;43.97
78667;BME280;67983;59.830;30.198;2023-08-12T08:17:39;101830.69;;;25.22;43.79
78667;BME280;67983;59.830;30.198;2023-08-12T08:20:07;101828.81;;;25.39;43.69
78667;BME280;67983;59.830;30.198;2023-08-12T08:22:36;101828.47;;;25.50;43.74
78667;BME280;67983;59.830;30.198;2023-08-12T08:25:05;101829.97;;;25.61;43.25
78667;BME280;67983;59.830;30.198;2023-08-12T08:27:33;101836.25;;;25.70;43.35
78667;BME280;67983;59.830;30.198;2023-08-12T08:30:00;101837.28;;;25.77;42.69
78667;BME280;67983;59.830;30.198;2023-08-12T08:32:29;101838.97;;;25.78;42.89
78667;BME280;67983;59.830;30.198;2023-08-12T08:34:56;101835.91;;;25.81;42.83
78667;BME280;67983;59.830;30.198;2023-08-12T08:37:23;101835.56;;;25.84;42.37
78667;BME280;67983;59.830;30.198;2023-08-12T08:39:50;101834.66;;;26.00;42.59
78667;BME280;67983;59.830;30.198;2023-08-12T08:42:19;101838.53;;;26.13;41.96
78667;BME280;67983;59.830;30.198;2023-08-12T08:44:49;101834.22;;;26.27;42.00
78667;BME280;67983;59.830;30.198;2023-08-12T08:47:25;101844.03;;;26.44;41.70
78667;BME280;67983;59.830;30.198;2023-08-12T08:49:57;101838.75;;;26.51;41.28
78667;BME280;67983;59.830;30.198;2023-08-12T08:52:24;101843.56;;;26.64;41.19
78667;BME280;67983;59.830;30.198;2023-08-12T08:54:51;101843.47;;;26.80;41.24
78667;BME280;67983;59.830;30.198;2023-08-12T08:57:20;101841.84;;;27.02;40.71
78667;BME280;67983;59.830;30.198;2023-08-12T08:59:48;101849.81;;;27.26;40.71
78667;BME280;67983;59.830;30.198;2023-08-12T09:02:17;101843.47;;;27.49;40.21
78667;BME280;67983;59.830;30.198;2023-08-12T09:04:46;101843.81;;;27.68;39.45
78667;BME280;67983;59.830;30.198;2023-08-12T09:07:15;101842.97;;;27.68;39.72
78667;BME280;67983;59.830;30.198;2023-08-12T09:09:46;101839.09;;;27.62;40.17
78667;BME280;67983;59.830;30.198;2023-08-12T09:12:16;101839.50;;;27.36;41.07
78667;BME280;67983;59.830;30.198;2023-08-12T09:14:45;101846.50;;;27.16;41.60
78667;BME280;67983;59.830;30.198;2023-08-12T09:17:14;101842.53;;;26.96;42.22
78667;BME280;67983;59.830;30.198;2023-08-12T09:19:41;101852.19;;;26.75;42.21
78667;BME280;67983;59.830;30.198;2023-08-12T09:22:09;101848.22;;;26.55;42.65
78667;BME280;67983;59.830;30.198;2023-08-12T09:24:38;101847.94;;;26.50;42.06
78667;BME280;67983;59.830;30.198;2023-08-12T09:27:06;101848.34;;;26.62;41.86
78667;BME280;67983;59.830;30.198;2023-08-12T09:29:35;101847.47;;;26.69;42.04
78667;BME280;67983;59.830;30.198;2023-08-12T09:32:06;101848.53;;;26.60;42.68
78667;BME280;67983;59.830;30.198;2023-08-12T09:34:36;101853.53;;;26.48;43.11
78667;BME280;67983;59.830;30.198;2023-08-12T09:37:04;101863.63;;;26.40;43.12
78667;BME280;67983;59.830;30.198;2023-08-12T09:39:32;101851.56;;;26.26;43.21
78667;BME280;67983;59.830;30.198;2023-08-12T09:42:01;101852.41;;;26.27;42.89
78667;BME280;67983;59.830;30.198;2023-08-12T09:44:30;101854.97;;;26.36;43.29
78667;BME280;67983;59.830;30.198;2023-08-12T09:46:57;101853.97;;;26.60;42.57
78667;BME280;67983;59.830;30.198;2023-08-12T09:49:25;101855.25;;;26.80;42.60
78667;BME280;67983;59.830;30.198;2023-08-12T09:51:53;101855.28;;;27.03;41.87
78667;BME280;67983;59.830;30.198;2023-08-12T09:54:21;101858.28;;;27.08;41.65
78667;BME280;67983;59.830;30.198;2023-08-12T09:56:51;101852.66;;;27.10;41.48
78667;BME280;67983;59.830;30.198;2023-08-12T09:59:25;101852.47;;;27.34;41.36
78667;BME280;67983;59.830;30.198;2023-08-12T10:01:55;101848.28;;;27.47;41.79
78667;BME280;67983;59.830;30.198;2023-08-12T10:04:23;101851.28;;;27.75;41.67
78667;BME280;67983;59.830;30.198;2023-08-12T10:06:55;101839.03;;;28.15;40.50
78667;BME280;67983;59.830;30.198;2023-08-12T10:09:31;101856.34;;;28.51;39.59
78667;BME280;67983;59.830;30.198;2023-08-12T10:11:59;101850.31;;;28.77;38.99
78667;BME280;67983;59.830;30.198;2023-08-12T10:14:28;101850.38;;;28.99;39.02
78667;BME280;67983;59.830;30.198;2023-08-12T10:17:21;101851.16;;;29.14;39.29
78667;BME280;67983;59.830;30.198;2023-08-12T10:19:54;101864.47;;;29.45;39.17
78667;BME280;67983;59.830;30.198;2023-08-12T10:22:22;101861.91;;;29.93;38.26
78667;BME280;67983;59.830;30.198;2023-08-12T10:24:50;101865.09;;;30.31;37.33
78667;BME280;67983;59.830;30.198;2023-08-12T10:27:18;101860.03;;;30.82;36.44
78667;BME280;67983;59.830;30.198;2023-08-12T10:29:47;101855.94;;;31.26;35.40
78667;BME280;67983;59.830;30.198;2023-08-12T10:32:16;101864.34;;;31.64;35.00
78667;BME280;67983;59.830;30.198;2023-08-12T10:35:09;101868.72;;;32.11;34.01
78667;BME280;67983;59.830;30.198;2023-08-12T10:37:37;101856.22;;;32.74;33.17
78667;BME280;67983;59.830;30.198;2023-08-12T10:40:06;101863.44;;;33.38;32.21
78667;BME280;67983;59.830;30.198;2023-08-12T10:42:42;101857.69;;;34.07;31.46
78667;BME280;67983;59.830;30.198;2023-08-12T10:45:15;101867.38;;;35.25;30.15
78667;BME280;67983;59.830;30.198;2023-08-12T10:47:47;101861.13;;;36.23;28.59
78667;BME280;67983;59.830;30.198;2023-08-12T10:50:19;101864.94;;;37.02;26.32
78667;BME280;67983;59.830;30.198;2023-08-12T10:52:52;101862.19;;;37.69;25.46
78667;BME280;67983;59.830;30.198;2023-08-12T10:55:24;101867.53;;;38.32;22.56
78667;BME280;67983;59.830;30.198;2023-08-12T10:57:53;101864.50;;;38.82;22.19
78667;BME280;67983;59.830;30.198;2023-08-12T11:00:25;101864.84;;;39.12;21.61
78667;BME280;67983;59.830;30.198;2023-08-12T11:02:54;101865.56;;;39.35;21.46
78667;BME280;67983;59.830;30.198;2023-08-12T11:05:22;101867.16;;;39.58;21.11
78667;BME280;67983;59.830;30.198;2023-08-12T11:07:56;101865.25;;;39.63;21.49
78667;BME280;67983;59.830;30.198;2023-08-12T11:10:27;101870.84;;;40.16;20.92
78667;BME280;67983;59.830;30.198;2023-08-12T11:12:56;101862.69;;;40.67;20.32
78667;BME280;67983;59.830;30.198;2023-08-12T11:15:32;101867.50;;;40.97;19.67
78667;BME280;67983;59.830;30.198;2023-08-12T11:18:03;101865.25;;;41.60;19.70
78667;BME280;67983;59.830;30.198;2023-08-12T11:20:34;101865.75;;;41.92;19.40
78667;BME280;67983;59.830;30.198;2023-08-12T11:23:03;101866.56;;;42.13;18.79
78667;BME280;67983;59.830;30.198;2023-08-12T11:25:32;101857.16;;;41.78;19.37
78667;BME280;67983;59.830;30.198;2023-08-12T11:28:00;101855.25;;;41.54;19.53
78667;BME280;67983;59.830;30.198;2023-08-12T11:30:27;101867.22;;;41.74;19.39
78667;BME280;67983;59.830;30.198;2023-08-12T11:32:56;101862.13;;;41.92;19.22
78667;BME280;67983;59.830;30.198;2023-08-12T11:35:28;101862.47;;;41.49;19.38
78667;BME280;67983;59.830;30.198;2023-08-12T11:40:20;101866.28;;;42.04;19.18
78667;BME280;67983;59.830;30.198;2023-08-12T11:42:49;101871.59;;;42.01;18.86
78667;BME280;67983;59.830;30.198;2023-08-12T11:45:18;101861.31;;;42.61;18.41
78667;BME280;67983;59.830;30.198;2023-08-12T11:47:45;101874.88;;;43.17;17.72
78667;BME280;67983;59.830;30.198;2023-08-12T11:50:19;101862.63;;;43.13;18.17
78667;BME280;67983;59.830;30.198;2023-08-12T11:52:47;101863.31;;;43.29;17.48
78667;BME280;67983;59.830;30.198;2023-08-12T11:55:16;101865.94;;;43.49;17.85
78667;BME280;67983;59.830;30.198;2023-08-12T11:57:45;101860.31;;;43.54;17.62
78667;BME280;67983;59.830;30.198;2023-08-12T12:00:15;101867.25;;;43.57;17.16
78667;BME280;67983;59.830;30.198;2023-08-12T12:02:47;101867.25;;;43.57;17.37
78667;BME280;67983;59.830;30.198;2023-08-12T12:05:17;101855.53;;;43.25;17.33
78667;BME280;67983;59.830;30.198;2023-08-12T12:07:48;101851.97;;;43.15;17.63
78667;BME280;67983;59.830;30.198;2023-08-12T12:10:19;101858.50;;;43.05;17.45
78667;BME280;67983;59.830;30.198;2023-08-12T12:12:49;101857.88;;;43.13;17.63
78667;BME280;67983;59.830;30.198;2023-08-12T12:15:16;101868.00;;;43.38;17.69
78667;BME280;67983;59.830;30.198;2023-08-12T12:17:46;101852.41;;;42.59;17.64
78667;BME280;67983;59.830;30.198;2023-08-12T12:20:14;101857.66;;;42.01;18.10
78667;BME280;67983;59.830;30.198;2023-08-12T12:22:43;101857.75;;;41.70;18.86
78667;BME280;67983;59.830;30.198;2023-08-12T12:25:13;101853.00;;;41.71;18.58
78667;BME280;67983;59.830;30.198;2023-08-12T12:27:42;101853.03;;;41.40;18.71
78667;BME280;67983;59.830;30.198;2023-08-12T12:30:13;101852.09;;;40.74;19.46
78667;BME280;67983;59.830;30.198;2023-08-12T12:32:41;101864.41;;;40.10;19.91
78667;BME280;67983;59.830;30.198;2023-08-12T12:35:09;101847.28;;;39.07;20.58
78667;BME280;67983;59.830;30.198;2023-08-12T12:37:37;101847.25;;;37.87;22.44
78667;BME280;67983;59.830;30.198;2023-08-12T12:40:06;101843.38;;;37.04;23.48
78667;BME280;67983;59.830;30.198;2023-08-12T12:42:33;101827.56;;;36.03;24.24
78667;BME280;67983;59.830;30.198;2023-08-12T12:45:01;101829.50;;;35.44;24.96
78667;BME280;67983;59.830;30.198;2023-08-12T12:47:29;101825.72;;;34.85;25.98
78667;BME280;67983;59.830;30.198;2023-08-12T12:49:57;101825.34;;;34.03;27.20
78667;BME280;67983;59.830;30.198;2023-08-12T12:52:24;101823.22;;;33.37;27.47